createdAt,value
2019-01-19T07:30:57.001Z,12.30
2019-01-19T07:52:48.792Z,17.97
2019-01-19T07:55:21.547Z,22.33
2019-01-19T07:57:54.304Z,18.87
2019-01-19T08:00:30.681Z,16.10
2019-01-19T08:03:03.553Z,18.67
2019-01-19T08:05:36.419Z,16.33
2019-01-19T08:08:09.675Z,14.70
2019-01-19T08:10:44.185Z,16.47
2019-01-19T08:13:17.037Z,17.07
2019-01-19T08:15:49.954Z,17.37
2019-01-19T08:18:23.863Z,18.60
2019-01-19T08:20:56.793Z,16.50
2019-01-19T08:23:29.544Z,16.50
2019-01-19T08:26:02.443Z,16.77
2019-01-19T08:28:35.209Z,18.00
2019-01-19T08:31:08.272Z,18.37
2019-01-19T08:33:41.199Z,29.37
2019-01-19T08:36:14.620Z,19.67
2019-01-19T08:38:47.479Z,16.60
2019-01-19T08:41:20.219Z,16.97
2019-01-19T08:43:55.621Z,21.23
2019-01-19T08:46:28.435Z,20.53
2019-01-19T08:49:03.369Z,19.60
2019-01-19T08:51:36.560Z,18.93
2019-01-19T08:54:09.553Z,28.10
2019-01-19T08:56:42.325Z,21.40
2019-01-19T08:59:15.120Z,19.13
2019-01-19T09:01:51.024Z,20.90
2019-01-19T09:04:23.772Z,23.33
2019-01-19T09:06:56.575Z,25.17
2019-01-19T09:09:29.356Z,24.57
2019-01-19T09:12:02.170Z,21.97
2019-01-19T09:14:34.964Z,21.53
2019-01-19T09:17:07.768Z,23.40
2019-01-19T09:19:40.639Z,31.00
2019-01-19T09:22:26.057Z,19.73
2019-01-19T09:24:58.816Z,24.67
2019-01-19T09:27:31.576Z,21.23
2019-01-19T09:30:04.941Z,19.60
2019-01-19T09:32:37.755Z,25.70
2019-01-19T09:35:10.918Z,24.53
2019-01-19T09:37:44.028Z,23.77
2019-01-19T09:40:18.375Z,24.03
2019-01-19T09:42:52.067Z,20.27
2019-01-19T09:45:25.342Z,21.87
2019-01-19T09:47:58.293Z,23.50
2019-01-19T09:50:31.054Z,20.57
2019-01-19T09:53:08.670Z,19.83
2019-01-19T09:56:12.848Z,20.87
2019-01-19T09:59:14.190Z,29.40
2019-01-19T10:01:57.848Z,31.33
2019-01-19T10:04:44.478Z,23.67
2019-01-19T10:08:13.285Z,24.40
2019-01-19T10:10:46.516Z,21.10
2019-01-19T10:13:26.443Z,18.60
2019-01-19T10:16:01.329Z,15.27
2019-01-19T10:18:42.021Z,19.40
2019-01-19T10:21:14.852Z,47.87
2019-01-19T10:23:47.620Z,20.60
2019-01-19T10:26:20.414Z,20.37
2019-01-19T10:28:53.521Z,22.20
2019-01-19T10:31:26.241Z,17.73
2019-01-19T10:33:59.033Z,15.73
2019-01-19T10:36:31.803Z,22.53
2019-01-19T10:39:07.015Z,14.73
2019-01-19T10:41:49.138Z,16.43
2019-01-19T10:44:25.038Z,15.17
2019-01-19T10:46:57.796Z,14.50
2019-01-19T10:49:30.576Z,17.70
2019-01-19T10:52:03.617Z,14.43
2019-01-19T10:54:36.465Z,16.27
2019-01-19T10:57:09.308Z,26.67
2019-01-19T10:59:42.099Z,14.77
2019-01-19T11:02:14.891Z,17.23
2019-01-19T11:04:48.745Z,21.27
2019-01-19T11:07:22.616Z,15.57
2019-01-19T11:09:56.388Z,18.17
2019-01-19T11:12:36.273Z,13.13
2019-01-19T11:15:13.906Z,10.77
2019-01-19T11:17:58.517Z,11.53
2019-01-19T11:20:31.891Z,13.23
2019-01-19T11:23:06.049Z,13.00
2019-01-19T11:25:39.282Z,13.43
2019-01-19T11:28:12.132Z,17.27
2019-01-19T11:30:44.963Z,12.93
2019-01-19T11:33:17.685Z,14.23
2019-01-19T11:35:50.519Z,17.77
2019-01-19T11:38:23.203Z,12.90
2019-01-19T11:40:57.843Z,11.53
2019-01-19T11:43:31.365Z,13.73
2019-01-19T11:46:04.175Z,11.63
2019-01-19T11:48:37.190Z,12.23
2019-01-19T11:51:10.065Z,10.60
2019-01-19T11:53:43.054Z,11.97
2019-01-19T11:56:15.951Z,11.97
2019-01-19T11:58:48.834Z,12.17
2019-01-19T12:01:21.604Z,14.23
2019-01-19T12:03:54.529Z,16.37
2019-01-19T12:06:27.373Z,13.63
2019-01-19T12:09:00.543Z,14.53
2019-01-19T12:11:34.996Z,16.00
2019-01-19T12:14:07.778Z,17.97
2019-01-19T12:16:40.551Z,13.37
2019-01-19T12:19:14.889Z,11.73
2019-01-19T12:21:48.059Z,14.73
2019-01-19T12:24:21.258Z,13.97
2019-01-19T12:26:54.694Z,18.93
2019-01-19T12:29:27.994Z,16.60
2019-01-19T12:32:11.321Z,14.37
2019-01-19T12:34:47.967Z,19.83
2019-01-19T12:37:25.887Z,19.13
2019-01-19T12:40:01.216Z,19.63
2019-01-19T12:42:36.526Z,13.97
2019-01-19T12:45:21.550Z,13.47
2019-01-19T12:47:57.618Z,14.47
2019-01-19T12:50:39.606Z,13.30
2019-01-19T12:53:15.965Z,14.03
2019-01-19T12:55:51.725Z,11.57
2019-01-19T12:58:25.416Z,14.20
2019-01-19T13:01:03.013Z,17.50
2019-01-19T13:03:36.734Z,16.70
2019-01-19T13:07:15.706Z,18.70
2019-01-19T13:10:17.856Z,21.23
2019-01-19T13:13:07.374Z,25.47
2019-01-19T13:16:48.467Z,23.67
2019-01-19T13:20:04.004Z,22.63
2019-01-19T13:23:57.630Z,25.17
2019-01-19T13:27:13.782Z,33.63
2019-01-19T13:30:35.905Z,24.40
2019-01-19T13:33:59.164Z,30.67
2019-01-19T13:36:52.343Z,22.87
2019-01-19T13:40:24.652Z,21.93
2019-01-19T13:44:14.904Z,23.73
2019-01-19T13:47:40.868Z,28.97
2019-01-19T13:50:46.094Z,25.97
2019-01-19T13:54:22.996Z,28.10
2019-01-19T13:58:08.223Z,22.33
2019-01-19T14:01:25.174Z,28.10
2019-01-19T14:04:51.047Z,29.03
2019-01-19T14:08:19.939Z,27.57
2019-01-19T14:11:37.051Z,28.70
2019-01-19T14:14:58.125Z,30.60
2019-01-19T14:18:44.121Z,30.23
2019-01-19T14:22:31.452Z,31.67
2019-01-19T14:25:50.327Z,27.83
2019-01-19T14:29:25.277Z,26.40
2019-01-19T14:32:49.877Z,28.93
2019-01-19T14:36:28.068Z,29.47
2019-01-19T14:39:54.673Z,25.47
2019-01-19T14:43:17.114Z,29.97
2019-01-19T14:46:44.739Z,27.83
2019-01-19T14:50:57.008Z,31.67
2019-01-19T14:54:27.839Z,29.23
2019-01-19T14:58:03.124Z,30.30
2019-01-19T15:01:23.025Z,31.33
2019-01-19T15:05:10.920Z,39.53
2019-01-19T15:08:19.065Z,103.23
2019-01-19T15:11:33.055Z,112.53
2019-01-19T15:15:02.734Z,98.90
2019-01-19T15:18:56.439Z,104.97
2019-01-19T15:22:27.181Z,98.37
2019-01-19T15:25:22.887Z,113.47
2019-01-19T15:29:11.065Z,105.07
2019-01-19T15:32:47.829Z,120.90
2019-01-19T15:36:00.129Z,85.00
2019-01-19T15:39:11.044Z,103.80
2019-01-19T15:42:41.047Z,94.60
2019-01-19T15:46:00.548Z,88.30
2019-01-19T15:49:58.902Z,82.13
2019-01-19T15:52:54.059Z,85.33
2019-01-19T15:56:12.779Z,79.70
2019-01-19T15:59:40.364Z,83.93
2019-01-19T16:02:56.226Z,89.07
2019-01-19T16:06:52.926Z,84.67
2019-01-19T16:10:46.644Z,96.10
2019-01-19T16:14:14.824Z,137.03
2019-01-19T16:17:22.462Z,168.03
2019-01-19T16:20:32.270Z,131.70
2019-01-19T16:24:07.091Z,106.77
2019-01-19T16:27:27.424Z,104.63
2019-01-19T16:31:08.725Z,105.30
2019-01-19T16:34:33.230Z,97.90
2019-01-19T16:38:06.768Z,110.40
2019-01-19T16:41:50.175Z,108.83
2019-01-19T16:45:19.784Z,146.40
2019-01-19T16:48:42.125Z,204.53
2019-01-19T16:52:41.264Z,215.07
2019-01-19T16:55:49.375Z,233.13
2019-01-19T16:59:28.523Z,262.63
2019-01-19T17:02:40.267Z,346.97
2019-01-19T17:05:36.597Z,335.17
2019-01-19T17:09:25.022Z,283.23
2019-01-19T17:12:43.247Z,269.60
2019-01-19T17:16:22.984Z,256.00
2019-01-19T17:19:33.914Z,279.23
2019-01-19T17:22:38.091Z,343.60
2019-01-19T17:26:12.497Z,276.20
2019-01-19T17:29:36.337Z,261.57
2019-01-19T17:32:43.951Z,373.70
2019-01-19T17:36:01.999Z,376.57
2019-01-19T17:39:07.533Z,423.60
2019-01-19T17:42:41.058Z,492.63
2019-01-19T17:45:58.073Z,419.33
2019-01-19T17:49:10.810Z,459.07
2019-01-19T17:52:55.828Z,463.27
2019-01-19T17:56:23.605Z,454.80
2019-01-19T18:00:02.481Z,467.27
2019-01-19T18:03:25.752Z,481.73
2019-01-19T18:06:55.949Z,524.80
2019-01-19T18:10:13.560Z,625.33
2019-01-19T18:13:43.090Z,634.17
2019-01-19T18:17:22.895Z,655.17
2019-01-19T18:20:48.069Z,651.90
2019-01-19T18:24:36.685Z,797.10
2019-01-19T18:28:02.960Z,790.40
2019-01-19T18:31:15.181Z,770.27
2019-01-19T18:34:37.253Z,740.97
2019-01-19T18:38:19.312Z,721.23
2019-01-19T18:42:03.381Z,830.87
2019-01-19T18:45:24.137Z,1772.27
2019-01-19T18:49:09.825Z,1647.07
2019-01-19T18:52:43.206Z,908.40
2019-01-19T18:55:58.526Z,905.50
2019-01-19T19:03:21.167Z,877.27
2019-01-19T19:10:59.313Z,852.67
2019-01-19T19:23:46.486Z,1077.47
2019-01-19T19:27:42.360Z,974.13
2019-01-19T19:32:10.601Z,950.33
2019-01-19T19:35:56.271Z,950.27
2019-01-19T19:39:42.745Z,1050.57
2019-01-19T19:42:56.694Z,1024.33
2019-01-19T19:46:33.526Z,882.40
2019-01-19T19:56:38.573Z,909.27
2019-01-19T20:03:01.421Z,1113.83
2019-01-19T20:09:19.226Z,886.93
2019-01-19T20:12:25.379Z,756.97
2019-01-19T20:15:27.709Z,937.53
2019-01-19T20:18:19.044Z,913.00
2019-01-19T20:21:13.236Z,921.93
2019-01-19T20:24:12.798Z,1021.03
2019-01-19T20:27:27.021Z,1037.47
2019-01-19T20:30:27.027Z,895.50
2019-01-19T20:33:42.488Z,699.43
2019-01-19T20:36:28.969Z,631.40
2019-01-19T20:39:01.989Z,662.77
2019-01-19T20:41:36.314Z,639.20
2019-01-19T20:48:37.811Z,599.97
2019-01-19T20:51:54.431Z,648.63
2019-01-19T20:54:59.347Z,679.00
2019-01-19T20:58:17.992Z,686.93
2019-01-19T21:01:15.500Z,709.03
2019-01-19T21:04:23.462Z,678.13
2019-01-19T21:07:26.295Z,756.10
2019-01-19T21:10:22.644Z,721.47
2019-01-19T21:12:57.048Z,682.03
2019-01-19T21:15:29.825Z,708.87
2019-01-19T21:18:03.095Z,717.67
2019-01-19T21:20:37.387Z,721.73
2019-01-19T21:23:49.639Z,809.20
2019-01-19T21:27:11.925Z,933.30
2019-01-19T21:29:52.952Z,924.43
2019-01-19T21:33:24.283Z,864.90
2019-01-19T21:37:12.113Z,856.83
2019-01-19T21:39:56.501Z,901.87
2019-01-19T21:42:45.252Z,815.30
2019-01-19T21:45:22.375Z,839.47
2019-01-19T21:48:03.937Z,838.53
2019-01-19T21:50:40.437Z,731.30
2019-01-19T21:53:28.171Z,775.70
2019-01-19T21:56:36.537Z,853.00
2019-01-19T22:00:01.011Z,844.23
2019-01-19T22:02:47.672Z,809.60
2019-01-19T22:05:49.681Z,763.93
2019-01-19T22:08:32.942Z,755.33
2019-01-19T22:11:22.112Z,734.13
2019-01-19T22:14:24.568Z,670.63
2019-01-19T22:17:24.606Z,682.63
2019-01-19T22:20:14.576Z,552.60
2019-01-19T22:23:30.706Z,584.90
2019-01-19T22:26:31.463Z,568.03
2019-01-19T22:29:31.796Z,604.37
2019-01-19T22:32:28.752Z,812.70
2019-01-19T22:35:48.928Z,1100.57
2019-01-19T22:38:59.309Z,656.73
2019-01-19T22:42:08.812Z,663.17
2019-01-19T22:45:29.892Z,583.83
2019-01-19T22:48:04.401Z,563.67
2019-01-19T22:50:37.155Z,565.10
2019-01-19T22:53:27.177Z,509.90
2019-01-19T22:56:27.458Z,454.53
2019-01-19T22:59:28.320Z,542.13
2019-01-19T23:02:38.539Z,482.87
2019-01-19T23:06:00.389Z,504.37
2019-01-19T23:09:31.330Z,411.93
2019-01-19T23:12:29.236Z,322.53
2019-01-19T23:15:12.386Z,449.20
2019-01-19T23:17:45.112Z,473.20
2019-01-19T23:20:17.828Z,414.37
2019-01-19T23:22:50.853Z,439.80
2019-01-19T23:25:23.729Z,380.73
2019-01-19T23:27:56.475Z,358.57
2019-01-19T23:30:29.295Z,444.00
2019-01-19T23:33:02.079Z,386.93
2019-01-19T23:35:34.788Z,335.53
2019-01-19T23:38:07.568Z,475.40
2019-01-19T23:40:42.461Z,471.77
2019-01-19T23:43:15.265Z,418.40
2019-01-19T23:45:48.022Z,431.83
2019-01-19T23:48:20.852Z,365.87
2019-01-19T23:50:53.663Z,409.03
2019-01-19T23:53:26.465Z,356.93
2019-01-19T23:55:59.258Z,344.00
2019-01-19T23:58:32.115Z,342.20
